sensor_id;sensor_type;location;lat;lon;timestamp;temperature;humidity
15615;DHT22;7907;51.368;6.730;2023-04-08T01:40:39;10.50;99.90
15615;DHT22;7907;51.368;6.730;2023-04-08T01:45:46;10.50;99.90
15615;DHT22;7907;51.368;6.730;2023-04-08T01:51:06;10.40;99.90
15615;DHT22;7907;51.368;6.730;2023-04-08T02:16:55;10.40;99.90
15615;DHT22;7907;51.368;6.730;2023-04-08T02:39:38;10.30;99.90
15615;DHT22;7907;51.368;6.730;2023-04-08T02:42:19;10.30;99.90
15615;DHT22;7907;51.368;6.730;2023-04-08T02:45:26;10.30;99.90
15615;DHT22;7907;51.368;6.730;2023-04-08T02:48:28;10.20;99.90
15615;DHT22;7907;51.368;6.730;2023-04-08T02:51:46;10.20;99.90
15615;DHT22;7907;51.368;6.730;2023-04-08T03:01:29;10.00;99.90
15615;DHT22;7907;51.368;6.730;2023-04-08T03:04:17;9.90;99.90
15615;DHT22;7907;51.368;6.730;2023-04-08T03:07:04;9.80;99.90
15615;DHT22;7907;51.368;6.730;2023-04-08T03:11:19;9.80;99.90
15615;DHT22;7907;51.368;6.730;2023-04-08T03:19:29;9.60;99.90
15615;DHT22;7907;51.368;6.730;2023-04-08T03:22:11;9.50;99.90
15615;DHT22;7907;51.368;6.730;2023-04-08T03:25:21;9.40;99.90
15615;DHT22;7907;51.368;6.730;2023-04-08T08:14:55;9.30;99.90
15615;DHT22;7907;51.368;6.730;2023-04-08T08:17:24;9.40;99.90
15615;DHT22;7907;51.368;6.730;2023-04-08T08:20:23;9.70;99.90
15615;DHT22;7907;51.368;6.730;2023-04-08T08:23:08;9.90;99.90
15615;DHT22;7907;51.368;6.730;2023-04-08T08:26:15;10.10;99.90
15615;DHT22;7907;51.368;6.730;2023-04-08T08:32:48;10.40;99.90
15615;DHT22;7907;51.368;6.730;2023-04-08T08:35:23;10.40;99.90
15615;DHT22;7907;51.368;6.730;2023-04-08T08:38:00;10.40;99.90
15615;DHT22;7907;51.368;6.730;2023-04-08T08:40:55;10.40;99.90
15615;DHT22;7907;51.368;6.730;2023-04-08T08:43:26;10.40;99.90
15615;DHT22;7907;51.368;6.730;2023-04-08T08:46:46;10.40;99.90
15615;DHT22;7907;51.368;6.730;2023-04-08T08:49:26;10.60;99.90
15615;DHT22;7907;51.368;6.730;2023-04-08T08:52:02;10.70;99.90
15615;DHT22;7907;51.368;6.730;2023-04-08T08:54:38;10.70;99.90
15615;DHT22;7907;51.368;6.730;2023-04-08T08:57:16;10.70;99.90
15615;DHT22;7907;51.368;6.730;2023-04-08T08:59:46;10.80;99.90
15615;DHT22;7907;51.368;6.730;2023-04-08T09:02:30;10.90;99.90
15615;DHT22;7907;51.368;6.730;2023-04-08T09:05:07;11.00;99.90
15615;DHT22;7907;51.368;6.730;2023-04-08T09:07:38;11.10;99.90
15615;DHT22;7907;51.368;6.730;2023-04-08T09:10:12;11.20;99.90
15615;DHT22;7907;51.368;6.730;2023-04-08T09:13:06;11.20;99.90
15615;DHT22;7907;51.368;6.730;2023-04-08T09:16:06;11.30;99.90
15615;DHT22;7907;51.368;6.730;2023-04-08T09:18:52;11.30;99.90
15615;DHT22;7907;51.368;6.730;2023-04-08T09:21:44;11.20;99.90
15615;DHT22;7907;51.368;6.730;2023-04-08T09:24:33;11.30;99.90
15615;DHT22;7907;51.368;6.730;2023-04-08T09:27:12;11.40;99.90
15615;DHT22;7907;51.368;6.730;2023-04-08T09:29:57;11.40;99.90
15615;DHT22;7907;51.368;6.730;2023-04-08T09:33:00;11.50;99.90
15615;DHT22;7907;51.368;6.730;2023-04-08T09:36:05;11.60;99.90
15615;DHT22;7907;51.368;6.730;2023-04-08T09:38:35;11.70;99.90
15615;DHT22;7907;51.368;6.730;2023-04-08T09:41:12;11.90;99.90
15615;DHT22;7907;51.368;6.730;2023-04-08T09:43:58;12.10;99.90
15615;DHT22;7907;51.368;6.730;2023-04-08T09:46:50;12.30;99.90
15615;DHT22;7907;51.368;6.730;2023-04-08T09:49:28;12.40;99.90
15615;DHT22;7907;51.368;6.730;2023-04-08T09:52:09;12.60;99.90
15615;DHT22;7907;51.368;6.730;2023-04-08T09:55:00;12.70;99.90
15615;DHT22;7907;51.368;6.730;2023-04-08T09:57:43;12.70;99.90
15615;DHT22;7907;51.368;6.730;2023-04-08T10:00:14;12.60;99.90
15615;DHT22;7907;51.368;6.730;2023-04-08T10:05:38;12.30;99.90
15615;DHT22;7907;51.368;6.730;2023-04-08T10:08:22;12.40;99.90
15615;DHT22;7907;51.368;6.730;2023-04-08T10:11:11;12.50;99.90
15615;DHT22;7907;51.368;6.730;2023-04-08T10:13:56;12.60;99.90
15615;DHT22;7907;51.368;6.730;2023-04-08T10:19:36;12.90;99.90
15615;DHT22;7907;51.368;6.730;2023-04-08T10:22:47;13.00;99.90
15615;DHT22;7907;51.368;6.730;2023-04-08T10:28:54;13.00;99.90
15615;DHT22;7907;51.368;6.730;2023-04-08T10:37:07;13.40;99.90
15615;DHT22;7907;51.368;6.730;2023-04-08T10:39:48;13.40;99.90
15615;DHT22;7907;51.368;6.730;2023-04-08T10:42:25;13.60;99.90
15615;DHT22;7907;51.368;6.730;2023-04-08T10:45:05;13.80;99.90
15615;DHT22;7907;51.368;6.730;2023-04-08T10:47:46;13.90;99.90
15615;DHT22;7907;51.368;6.730;2023-04-08T10:50:29;14.10;99.90
15615;DHT22;7907;51.368;6.730;2023-04-08T10:52:58;14.10;99.90
15615;DHT22;7907;51.368;6.730;2023-04-08T10:55:28;14.20;99.90
15615;DHT22;7907;51.368;6.730;2023-04-08T10:58:10;14.40;99.90
15615;DHT22;7907;51.368;6.730;2023-04-08T11:00:48;14.50;99.90
15615;DHT22;7907;51.368;6.730;2023-04-08T11:03:26;14.50;99.90
15615;DHT22;7907;51.368;6.730;2023-04-08T11:06:01;14.60;99.90
15615;DHT22;7907;51.368;6.730;2023-04-08T11:08:34;14.60;99.90
15615;DHT22;7907;51.368;6.730;2023-04-08T11:11:18;14.50;99.90
15615;DHT22;7907;51.368;6.730;2023-04-08T11:13:59;14.60;99.90
15615;DHT22;7907;51.368;6.730;2023-04-08T11:16:35;14.70;99.90
15615;DHT22;7907;51.368;6.730;2023-04-08T11:19:14;14.80;98.30
15615;DHT22;7907;51.368;6.730;2023-04-08T11:21:49;14.90;96.30
15615;DHT22;7907;51.368;6.730;2023-04-08T11:24:57;14.90;90.70
15615;DHT22;7907;51.368;6.730;2023-04-08T11:27:36;15.00;87.90
15615;DHT22;7907;51.368;6.730;2023-04-08T11:41:14;15.00;81.00
15615;DHT22;7907;51.368;6.730;2023-04-08T11:44:04;15.00;78.70
15615;DHT22;7907;51.368;6.730;2023-04-08T11:47:36;14.90;78.70
15615;DHT22;7907;51.368;6.730;2023-04-08T11:50:08;14.90;85.70
15615;DHT22;7907;51.368;6.730;2023-04-08T11:52:48;15.00;87.80
15615;DHT22;7907;51.368;6.730;2023-04-08T11:55:23;15.00;87.30
15615;DHT22;7907;51.368;6.730;2023-04-08T11:57:54;15.00;89.00
15615;DHT22;7907;51.368;6.730;2023-04-08T12:00:34;15.10;89.20
15615;DHT22;7907;51.368;6.730;2023-04-08T12:03:08;15.10;88.60
15615;DHT22;7907;51.368;6.730;2023-04-08T12:06:01;15.20;87.60
15615;DHT22;7907;51.368;6.730;2023-04-08T12:08:42;15.20;82.90
15615;DHT22;7907;51.368;6.730;2023-04-08T12:11:21;15.20;82.50
15615;DHT22;7907;51.368;6.730;2023-04-08T12:14:27;15.20;83.00
15615;DHT22;7907;51.368;6.730;2023-04-08T12:17:21;15.10;82.80
15615;DHT22;7907;51.368;6.730;2023-04-08T12:19:54;15.10;83.40
15615;DHT22;7907;51.368;6.730;2023-04-08T12:22:25;15.10;86.20
15615;DHT22;7907;51.368;6.730;2023-04-08T12:25:13;15.10;84.90
15615;DHT22;7907;51.368;6.730;2023-04-08T12:27:42;15.10;83.60
15615;DHT22;7907;51.368;6.730;2023-04-08T12:30:21;15.20;83.40
15615;DHT22;7907;51.368;6.730;2023-04-08T12:32:53;15.30;85.90
15615;DHT22;7907;51.368;6.730;2023-04-08T12:35:38;15.40;80.90
15615;DHT22;7907;51.368;6.730;2023-04-08T12:38:07;15.50;78.90
15615;DHT22;7907;51.368;6.730;2023-04-08T12:40:44;15.30;80.20
15615;DHT22;7907;51.368;6.730;2023-04-08T12:43:19;15.40;80.40
15615;DHT22;7907;51.368;6.730;2023-04-08T12:45:59;15.40;83.00
15615;DHT22;7907;51.368;6.730;2023-04-08T12:48:33;15.50;81.60
15615;DHT22;7907;51.368;6.730;2023-04-08T12:51:11;15.50;81.10
15615;DHT22;7907;51.368;6.730;2023-04-08T12:53:43;15.50;80.90
15615;DHT22;7907;51.368;6.730;2023-04-08T12:56:26;15.40;83.30
15615;DHT22;7907;51.368;6.730;2023-04-08T12:59:09;15.40;81.70
15615;DHT22;7907;51.368;6.730;2023-04-08T13:01:46;15.30;81.00
15615;DHT22;7907;51.368;6.730;2023-04-08T13:04:24;15.20;78.90
15615;DHT22;7907;51.368;6.730;2023-04-08T13:07:00;15.10;80.90
15615;DHT22;7907;51.368;6.730;2023-04-08T13:09:41;15.20;83.30
15615;DHT22;7907;51.368;6.730;2023-04-08T13:12:13;15.30;81.10
15615;DHT22;7907;51.368;6.730;2023-04-08T13:14:54;15.40;80.60
15615;DHT22;7907;51.368;6.730;2023-04-08T13:18:00;15.40;82.20
15615;DHT22;7907;51.368;6.730;2023-04-08T13:21:12;15.60;81.70
15615;DHT22;7907;51.368;6.730;2023-04-08T13:23:40;15.70;79.90
15615;DHT22;7907;51.368;6.730;2023-04-08T13:26:35;15.60;78.40
15615;DHT22;7907;51.368;6.730;2023-04-08T13:29:25;15.40;79.90
15615;DHT22;7907;51.368;6.730;2023-04-08T13:34:34;15.20;85.60
15615;DHT22;7907;51.368;6.730;2023-04-08T13:37:12;15.30;89.80
15615;DHT22;7907;51.368;6.730;2023-04-08T13:40:12;15.20;89.20
15615;DHT22;7907;51.368;6.730;2023-04-08T13:42:56;15.20;93.20
15615;DHT22;7907;51.368;6.730;2023-04-08T13:45:30;15.20;92.90
15615;DHT22;7907;51.368;6.730;2023-04-08T13:48:00;15.30;95.10
15615;DHT22;7907;51.368;6.730;2023-04-08T13:50:50;15.20;95.90
15615;DHT22;7907;51.368;6.730;2023-04-08T13:53:22;15.30;95.40
15615;DHT22;7907;51.368;6.730;2023-04-08T13:55:57;15.40;97.50
15615;DHT22;7907;51.368;6.730;2023-04-08T13:58:40;15.30;95.90
15615;DHT22;7907;51.368;6.730;2023-04-08T14:01:36;15.30;98.10
15615;DHT22;7907;51.368;6.730;2023-04-08T14:04:20;15.40;97.70
15615;DHT22;7907;51.368;6.730;2023-04-08T14:21:35;15.40;99.90
15615;DHT22;7907;51.368;6.730;2023-04-08T14:24:19;15.70;99.20
15615;DHT22;7907;51.368;6.730;2023-04-08T14:26:58;15.80;99.90
15615;DHT22;7907;51.368;6.730;2023-04-08T14:29:44;15.80;99.90
15615;DHT22;7907;51.368;6.730;2023-04-08T14:32:38;15.90;98.10
15615;DHT22;7907;51.368;6.730;2023-04-08T14:35:25;16.00;96.10
15615;DHT22;7907;51.368;6.730;2023-04-08T14:38:07;16.10;99.90
15615;DHT22;7907;51.368;6.730;2023-04-08T14:40:40;16.00;95.70
15615;DHT22;7907;51.368;6.730;2023-04-08T14:43:15;15.80;98.20
15615;DHT22;7907;51.368;6.730;2023-04-08T14:45:45;15.60;99.90
15615;DHT22;7907;51.368;6.730;2023-04-08T14:48:13;15.70;99.90
15615;DHT22;7907;51.368;6.730;2023-04-08T14:50:40;15.80;99.90
15615;DHT22;7907;51.368;6.730;2023-04-08T14:53:10;15.90;99.90
15615;DHT22;7907;51.368;6.730;2023-04-08T14:55:41;16.00;99.90
15615;DHT22;7907;51.368;6.730;2023-04-08T14:58:09;16.00;99.20
15615;DHT22;7907;51.368;6.730;2023-04-08T15:00:36;15.90;99.90
15615;DHT22;7907;51.368;6.730;2023-04-08T15:03:04;15.90;99.90
15615;DHT22;7907;51.368;6.730;2023-04-08T15:05:31;16.00;99.40
15615;DHT22;7907;51.368;6.730;2023-04-08T15:08:01;16.00;99.90
15615;DHT22;7907;51.368;6.730;2023-04-08T15:10:39;15.90;99.90
15615;DHT22;7907;51.368;6.730;2023-04-08T15:13:10;15.80;99.90
15615;DHT22;7907;51.368;6.730;2023-04-08T15:15:40;15.80;99.90
15615;DHT22;7907;51.368;6.730;2023-04-08T15:18:23;15.70;99.90
15615;DHT22;7907;51.368;6.730;2023-04-08T15:20:59;15.70;99.90
15615;DHT22;7907;51.368;6.730;2023-04-08T15:23:29;15.60;99.90
15615;DHT22;7907;51.368;6.730;2023-04-08T15:26:17;15.50;99.90
15615;DHT22;7907;51.368;6.730;2023-04-08T15:28:56;15.40;99.90
15615;DHT22;7907;51.368;6.730;2023-04-08T15:31:24;15.30;99.90
15615;DHT22;7907;51.368;6.730;2023-04-08T15:33:54;15.30;99.90
15615;DHT22;7907;51.368;6.730;2023-04-08T15:36:28;15.20;99.90
15615;DHT22;7907;51.368;6.730;2023-04-08T15:39:02;15.20;99.90
15615;DHT22;7907;51.368;6.730;2023-04-08T15:41:31;15.20;99.90
15615;DHT22;7907;51.368;6.730;2023-04-08T15:43:58;15.20;99.90
15615;DHT22;7907;51.368;6.730;2023-04-08T15:46:28;15.20;99.90
15615;DHT22;7907;51.368;6.730;2023-04-08T15:48:56;15.20;99.90
15615;DHT22;7907;51.368;6.730;2023-04-08T15:51:25;15.10;99.90
15615;DHT22;7907;51.368;6.730;2023-04-08T15:54:00;15.00;99.90
15615;DHT22;7907;51.368;6.730;2023-04-08T15:56:28;15.00;99.90
15615;DHT22;7907;51.368;6.730;2023-04-08T15:58:57;14.90;99.90
15615;DHT22;7907;51.368;6.730;2023-04-08T16:01:24;14.90;99.90
15615;DHT22;7907;51.368;6.730;2023-04-08T16:03:57;14.90;99.90
15615;DHT22;7907;51.368;6.730;2023-04-08T16:06:26;14.80;99.90
15615;DHT22;7907;51.368;6.730;2023-04-08T16:08:55;14.70;99.90
15615;DHT22;7907;51.368;6.730;2023-04-08T16:11:22;14.70;99.90
15615;DHT22;7907;51.368;6.730;2023-04-08T16:13:51;14.70;99.90
15615;DHT22;7907;51.368;6.730;2023-04-08T16:16:31;14.60;99.90
15615;DHT22;7907;51.368;6.730;2023-04-08T16:19:09;14.60;99.90
15615;DHT22;7907;51.368;6.730;2023-04-08T16:21:42;14.60;99.90
15615;DHT22;7907;51.368;6.730;2023-04-08T16:24:10;14.60;99.90
15615;DHT22;7907;51.368;6.730;2023-04-08T16:26:40;14.50;99.90
15615;DHT22;7907;51.368;6.730;2023-04-08T16:29:09;14.50;99.90
15615;DHT22;7907;51.368;6.730;2023-04-08T16:31:42;14.50;99.90
15615;DHT22;7907;51.368;6.730;2023-04-08T16:34:13;14.40;99.90
15615;DHT22;7907;51.368;6.730;2023-04-08T16:36:45;14.40;99.90
15615;DHT22;7907;51.368;6.730;2023-04-08T16:39:16;14.40;99.90
15615;DHT22;7907;51.368;6.730;2023-04-08T16:41:46;14.40;99.90
15615;DHT22;7907;51.368;6.730;2023-04-08T16:44:14;14.40;99.90
15615;DHT22;7907;51.368;6.730;2023-04-08T16:46:51;14.40;99.90
15615;DHT22;7907;51.368;6.730;2023-04-08T16:49:25;14.30;99.90
15615;DHT22;7907;51.368;6.730;2023-04-08T16:51:52;14.30;99.90
15615;DHT22;7907;51.368;6.730;2023-04-08T16:54:30;14.20;99.90
15615;DHT22;7907;51.368;6.730;2023-04-08T16:57:13;14.20;99.90
15615;DHT22;7907;51.368;6.730;2023-04-08T16:59:55;14.20;99.90
15615;DHT22;7907;51.368;6.730;2023-04-08T17:02:31;14.00;99.90
15615;DHT22;7907;51.368;6.730;2023-04-08T17:05:10;13.90;99.90
15615;DHT22;7907;51.368;6.730;2023-04-08T17:07:39;13.90;99.90
15615;DHT22;7907;51.368;6.730;2023-04-08T17:10:08;13.80;99.90
15615;DHT22;7907;51.368;6.730;2023-04-08T17:12:38;13.80;99.90
15615;DHT22;7907;51.368;6.730;2023-04-08T17:15:08;13.80;99.90
15615;DHT22;7907;51.368;6.730;2023-04-08T17:17:40;13.80;99.90
15615;DHT22;7907;51.368;6.730;2023-04-08T17:20:09;13.70;99.90
15615;DHT22;7907;51.368;6.730;2023-04-08T17:22:37;13.70;99.90
15615;DHT22;7907;51.368;6.730;2023-04-08T17:25:09;13.70;99.90
15615;DHT22;7907;51.368;6.730;2023-04-08T17:27:58;13.70;99.90
15615;DHT22;7907;51.368;6.730;2023-04-08T17:30:34;13.70;99.90
15615;DHT22;7907;51.368;6.730;2023-04-08T17:33:07;13.70;99.90
15615;DHT22;7907;51.368;6.730;2023-04-08T17:35:34;13.70;99.90
15615;DHT22;7907;51.368;6.730;2023-04-08T17:38:25;13.60;99.90
15615;DHT22;7907;51.368;6.730;2023-04-08T17:40:52;13.60;99.90
15615;DHT22;7907;51.368;6.730;2023-04-08T17:43:24;13.60;99.90
15615;DHT22;7907;51.368;6.730;2023-04-08T17:45:59;13.60;99.90
15615;DHT22;7907;51.368;6.730;2023-04-08T17:48:32;13.60;99.90
15615;DHT22;7907;51.368;6.730;2023-04-08T17:51:09;13.50;99.90
15615;DHT22;7907;51.368;6.730;2023-04-08T17:53:44;13.50;99.90
15615;DHT22;7907;51.368;6.730;2023-04-08T17:56:25;13.50;99.90
15615;DHT22;7907;51.368;6.730;2023-04-08T17:58:58;13.40;99.90
15615;DHT22;7907;51.368;6.730;2023-04-08T18:01:31;13.40;99.90
15615;DHT22;7907;51.368;6.730;2023-04-08T18:04:16;13.40;99.90
15615;DHT22;7907;51.368;6.730;2023-04-08T18:06:57;13.30;99.90
15615;DHT22;7907;51.368;6.730;2023-04-08T18:09:26;13.30;99.90
15615;DHT22;7907;51.368;6.730;2023-04-08T18:11:55;13.30;99.90
15615;DHT22;7907;51.368;6.730;2023-04-08T18:14:31;13.20;99.90
15615;DHT22;7907;51.368;6.730;2023-04-08T18:17:00;13.10;99.90
15615;DHT22;7907;51.368;6.730;2023-04-08T18:19:32;13.10;99.90
15615;DHT22;7907;51.368;6.730;2023-04-08T18:22:00;13.10;99.90
15615;DHT22;7907;51.368;6.730;2023-04-08T18:24:28;13.10;99.90
15615;DHT22;7907;51.368;6.730;2023-04-08T18:27:00;13.00;99.90
15615;DHT22;7907;51.368;6.730;2023-04-08T18:29:30;13.00;99.90
15615;DHT22;7907;51.368;6.730;2023-04-08T18:32:02;13.00;99.90
15615;DHT22;7907;51.368;6.730;2023-04-08T18:34:41;13.00;99.90
15615;DHT22;7907;51.368;6.730;2023-04-08T18:37:18;13.00;99.90
15615;DHT22;7907;51.368;6.730;2023-04-08T18:39:54;12.90;99.90
15615;DHT22;7907;51.368;6.730;2023-04-08T18:42:27;12.90;99.90
15615;DHT22;7907;51.368;6.730;2023-04-08T18:44:58;12.90;99.90
15615;DHT22;7907;51.368;6.730;2023-04-08T18:47:32;12.90;99.90
15615;DHT22;7907;51.368;6.730;2023-04-08T18:50:10;12.90;99.90
15615;DHT22;7907;51.368;6.730;2023-04-08T18:52:40;12.90;99.90
15615;DHT22;7907;51.368;6.730;2023-04-08T18:55:13;12.80;99.90
15615;DHT22;7907;51.368;6.730;2023-04-08T18:57:40;12.80;99.90
15615;DHT22;7907;51.368;6.730;2023-04-08T19:00:24;12.80;99.90
15615;DHT22;7907;51.368;6.730;2023-04-08T19:06:22;12.80;99.90
15615;DHT22;7907;51.368;6.730;2023-04-08T19:09:54;12.80;99.90
15615;DHT22;7907;51.368;6.730;2023-04-08T19:12:09;12.80;99.90
15615;DHT22;7907;51.368;6.730;2023-04-08T19:14:41;12.80;99.90
15615;DHT22;7907;51.368;6.730;2023-04-08T19:29:04;12.70;99.90
15615;DHT22;7907;51.368;6.730;2023-04-08T19:31:34;12.70;99.90
15615;DHT22;7907;51.368;6.730;2023-04-08T20:09:36;12.60;99.90
15615;DHT22;7907;51.368;6.730;2023-04-08T20:12:22;12.50;99.90
15615;DHT22;7907;51.368;6.730;2023-04-08T20:14:52;12.60;99.90
15615;DHT22;7907;51.368;6.730;2023-04-08T20:20:13;12.50;99.90
15615;DHT22;7907;51.368;6.730;2023-04-08T20:22:44;12.50;99.90
15615;DHT22;7907;51.368;6.730;2023-04-08T20:25:20;12.50;99.90
15615;DHT22;7907;51.368;6.730;2023-04-08T20:28:39;12.50;99.90
15615;DHT22;7907;51.368;6.730;2023-04-08T20:30:51;12.50;99.90
15615;DHT22;7907;51.368;6.730;2023-04-08T20:33:27;12.50;99.90
15615;DHT22;7907;51.368;6.730;2023-04-08T20:36:03;12.50;99.90
15615;DHT22;7907;51.368;6.730;2023-04-08T20:41:44;12.40;99.90
15615;DHT22;7907;51.368;6.730;2023-04-08T20:44:35;12.40;99.90
15615;DHT22;7907;51.368;6.730;2023-04-08T20:47:08;12.40;99.90
15615;DHT22;7907;51.368;6.730;2023-04-08T20:49:36;12.40;99.90
15615;DHT22;7907;51.368;6.730;2023-04-08T20:52:06;12.40;99.90
15615;DHT22;7907;51.368;6.730;2023-04-08T20:54:34;12.30;99.90
15615;DHT22;7907;51.368;6.730;2023-04-08T20:57:33;12.40;99.90
15615;DHT22;7907;51.368;6.730;2023-04-08T21:00:05;12.40;99.90
15615;DHT22;7907;51.368;6.730;2023-04-08T21:02:36;12.30;99.90
15615;DHT22;7907;51.368;6.730;2023-04-08T21:05:04;12.30;99.90
15615;DHT22;7907;51.368;6.730;2023-04-08T21:07:40;12.30;99.90
15615;DHT22;7907;51.368;6.730;2023-04-08T21:10:12;12.30;99.90
15615;DHT22;7907;51.368;6.730;2023-04-08T21:12:46;12.30;99.90
15615;DHT22;7907;51.368;6.730;2023-04-08T21:15:20;12.30;99.90
15615;DHT22;7907;51.368;6.730;2023-04-08T21:17:59;12.30;99.90
15615;DHT22;7907;51.368;6.730;2023-04-08T21:20:41;12.30;99.90
15615;DHT22;7907;51.368;6.730;2023-04-08T21:23:22;12.30;99.90
15615;DHT22;7907;51.368;6.730;2023-04-08T21:25:52;12.20;99.90
15615;DHT22;7907;51.368;6.730;2023-04-08T21:28:39;12.20;99.90
15615;DHT22;7907;51.368;6.730;2023-04-08T21:31:13;12.20;99.90
15615;DHT22;7907;51.368;6.730;2023-04-08T21:33:43;12.20;99.90
15615;DHT22;7907;51.368;6.730;2023-04-08T21:36:15;12.20;99.90
15615;DHT22;7907;51.368;6.730;2023-04-08T21:38:57;12.20;99.90
15615;DHT22;7907;51.368;6.730;2023-04-08T21:41:33;12.20;99.90
15615;DHT22;7907;51.368;6.730;2023-04-08T21:44:07;12.20;99.90
15615;DHT22;7907;51.368;6.730;2023-04-08T21:46:43;12.20;99.90
15615;DHT22;7907;51.368;6.730;2023-04-08T21:49:18;12.20;99.90
15615;DHT22;7907;51.368;6.730;2023-04-08T21:51:45;12.10;99.90
15615;DHT22;7907;51.368;6.730;2023-04-08T21:54:19;12.20;99.90
15615;DHT22;7907;51.368;6.730;2023-04-08T21:56:47;12.20;99.90
15615;DHT22;7907;51.368;6.730;2023-04-08T21:59:17;12.10;99.90
15615;DHT22;7907;51.368;6.730;2023-04-08T22:01:50;12.10;99.90
15615;DHT22;7907;51.368;6.730;2023-04-08T22:04:23;12.10;99.90
15615;DHT22;7907;51.368;6.730;2023-04-08T22:07:01;12.10;99.90
15615;DHT22;7907;51.368;6.730;2023-04-08T22:09:42;12.10;99.90
15615;DHT22;7907;51.368;6.730;2023-04-08T22:12:21;12.10;99.90
15615;DHT22;7907;51.368;6.730;2023-04-08T22:18:01;12.00;99.90
15615;DHT22;7907;51.368;6.730;2023-04-08T22:20:39;12.00;99.90
15615;DHT22;7907;51.368;6.730;2023-04-08T22:23:33;11.90;99.90
15615;DHT22;7907;51.368;6.730;2023-04-08T22:26:46;11.90;99.90
15615;DHT22;7907;51.368;6.730;2023-04-08T22:29:21;11.90;99.90
15615;DHT22;7907;51.368;6.730;2023-04-08T22:31:53;11.90;99.90
15615;DHT22;7907;51.368;6.730;2023-04-08T22:34:27;11.90;99.90
15615;DHT22;7907;51.368;6.730;2023-04-08T22:37:07;11.90;99.90
15615;DHT22;7907;51.368;6.730;2023-04-08T22:58:53;11.50;99.90
15615;DHT22;7907;51.368;6.730;2023-04-08T23:01:35;11.40;99.90
15615;DHT22;7907;51.368;6.730;2023-04-08T23:04:22;11.30;99.90
15615;DHT22;7907;51.368;6.730;2023-04-08T23:07:01;11.30;99.90
15615;DHT22;7907;51.368;6.730;2023-04-08T23:09:57;11.20;99.90
15615;DHT22;7907;51.368;6.730;2023-04-08T23:12:40;11.10;99.90
15615;DHT22;7907;51.368;6.730;2023-04-08T23:18:55;10.90;99.90
15615;DHT22;7907;51.368;6.730;2023-04-08T23:21:46;10.90;99.90
15615;DHT22;7907;51.368;6.730;2023-04-08T23:24:25;10.80;99.90
15615;DHT22;7907;51.368;6.730;2023-04-08T23:27:12;10.70;99.90
15615;DHT22;7907;51.368;6.730;2023-04-08T23:30:00;10.60;99.90
15615;DHT22;7907;51.368;6.730;2023-04-08T23:32:48;10.50;99.90
15615;DHT22;7907;51.368;6.730;2023-04-08T23:35:48;10.50;99.90
15615;DHT22;7907;51.368;6.730;2023-04-08T23:38:49;10.40;99.90
15615;DHT22;7907;51.368;6.730;2023-04-08T23:41:33;10.30;99.90
15615;DHT22;7907;51.368;6.730;2023-04-08T23:44:25;10.30;99.90
15615;DHT22;7907;51.368;6.730;2023-04-08T23:47:03;10.20;99.90
15615;DHT22;7907;51.368;6.730;2023-04-08T23:49:37;10.10;99.90
15615;DHT22;7907;51.368;6.730;2023-04-08T23:52:24;10.10;99.90
15615;DHT22;7907;51.368;6.730;2023-04-08T23:55:02;10.00;99.90
15615;DHT22;7907;51.368;6.730;2023-04-08T23:57:48;9.90;99.90
